sensor_id;sensor_type;location;lat;lon;timestamp;P1;durP1;ratioP1;P2;durP2;ratioP2
6757;SDS011;3416;53.074;8.822;2023-04-08T00:02:15;13.90;;;10.52;;
6757;SDS011;3416;53.074;8.822;2023-04-08T00:04:42;13.50;;;11.57;;
6757;SDS011;3416;53.074;8.822;2023-04-08T00:07:10;12.80;;;11.40;;
6757;SDS011;3416;53.074;8.822;2023-04-08T00:09:37;15.57;;;11.65;;
6757;SDS011;3416;53.074;8.822;2023-04-08T00:12:04;15.45;;;11.13;;
6757;SDS011;3416;53.074;8.822;2023-04-08T00:14:31;15.27;;;11.38;;
6757;SDS011;3416;53.074;8.822;2023-04-08T00:16:58;18.02;;;12.63;;
6757;SDS011;3416;53.074;8.822;2023-04-08T00:19:25;15.60;;;11.30;;
6757;SDS011;3416;53.074;8.822;2023-04-08T00:21:52;13.45;;;10.98;;
6757;SDS011;3416;53.074;8.822;2023-04-08T00:24:20;14.45;;;10.35;;
6757;SDS011;3416;53.074;8.822;2023-04-08T00:26:48;17.08;;;11.27;;
6757;SDS011;3416;53.074;8.822;2023-04-08T00:29:14;16.90;;;12.65;;
6757;SDS011;3416;53.074;8.822;2023-04-08T00:31:41;15.80;;;10.57;;
6757;SDS011;3416;53.074;8.822;2023-04-08T00:34:08;16.77;;;12.25;;
6757;SDS011;3416;53.074;8.822;2023-04-08T00:36:35;13.75;;;11.25;;
6757;SDS011;3416;53.074;8.822;2023-04-08T00:39:04;14.50;;;11.52;;
6757;SDS011;3416;53.074;8.822;2023-04-08T00:41:33;15.23;;;11.40;;
6757;SDS011;3416;53.074;8.822;2023-04-08T00:44:00;16.45;;;13.50;;
6757;SDS011;3416;53.074;8.822;2023-04-08T00:46:30;18.05;;;13.57;;
6757;SDS011;3416;53.074;8.822;2023-04-08T00:48:59;19.25;;;12.65;;
6757;SDS011;3416;53.074;8.822;2023-04-08T00:51:28;24.13;;;15.95;;
6757;SDS011;3416;53.074;8.822;2023-04-08T00:53:55;15.98;;;12.70;;
6757;SDS011;3416;53.074;8.822;2023-04-08T00:56:22;19.00;;;14.20;;
6757;SDS011;3416;53.074;8.822;2023-04-08T00:58:51;18.15;;;13.10;;
6757;SDS011;3416;53.074;8.822;2023-04-08T01:01:21;17.83;;;13.65;;
6757;SDS011;3416;53.074;8.822;2023-04-08T01:03:55;14.43;;;12.45;;
6757;SDS011;3416;53.074;8.822;2023-04-08T01:06:28;18.08;;;12.07;;
6757;SDS011;3416;53.074;8.822;2023-04-08T01:09:02;18.58;;;12.02;;
6757;SDS011;3416;53.074;8.822;2023-04-08T01:11:34;18.60;;;12.95;;
6757;SDS011;3416;53.074;8.822;2023-04-08T01:14:05;17.75;;;12.38;;
6757;SDS011;3416;53.074;8.822;2023-04-08T01:16:35;19.50;;;14.05;;
6757;SDS011;3416;53.074;8.822;2023-04-08T01:19:05;20.75;;;13.23;;
6757;SDS011;3416;53.074;8.822;2023-04-08T01:21:36;17.15;;;12.68;;
6757;SDS011;3416;53.074;8.822;2023-04-08T01:24:05;18.95;;;15.25;;
6757;SDS011;3416;53.074;8.822;2023-04-08T01:26:39;22.60;;;13.02;;
6757;SDS011;3416;53.074;8.822;2023-04-08T01:29:06;21.55;;;14.30;;
6757;SDS011;3416;53.074;8.822;2023-04-08T01:31:36;20.08;;;13.95;;
6757;SDS011;3416;53.074;8.822;2023-04-08T01:34:06;21.60;;;15.25;;
6757;SDS011;3416;53.074;8.822;2023-04-08T01:36:37;23.83;;;16.63;;
6757;SDS011;3416;53.074;8.822;2023-04-08T01:39:04;27.02;;;16.73;;
6757;SDS011;3416;53.074;8.822;2023-04-08T01:41:33;24.65;;;15.68;;
6757;SDS011;3416;53.074;8.822;2023-04-08T01:44:02;24.88;;;16.00;;
6757;SDS011;3416;53.074;8.822;2023-04-08T01:46:30;23.73;;;16.08;;
6757;SDS011;3416;53.074;8.822;2023-04-08T01:48:58;25.73;;;18.23;;
6757;SDS011;3416;53.074;8.822;2023-04-08T01:51:26;28.50;;;18.05;;
6757;SDS011;3416;53.074;8.822;2023-04-08T01:53:55;24.63;;;17.40;;
6757;SDS011;3416;53.074;8.822;2023-04-08T01:56:29;25.85;;;18.77;;
6757;SDS011;3416;53.074;8.822;2023-04-08T01:59:03;26.52;;;17.98;;
6757;SDS011;3416;53.074;8.822;2023-04-08T02:01:35;24.38;;;18.08;;
6757;SDS011;3416;53.074;8.822;2023-04-08T02:04:03;24.65;;;19.58;;
6757;SDS011;3416;53.074;8.822;2023-04-08T02:06:29;29.88;;;18.15;;
6757;SDS011;3416;53.074;8.822;2023-04-08T02:08:58;25.33;;;19.17;;
6757;SDS011;3416;53.074;8.822;2023-04-08T02:11:26;30.08;;;19.80;;
6757;SDS011;3416;53.074;8.822;2023-04-08T02:13:54;26.35;;;20.70;;
6757;SDS011;3416;53.074;8.822;2023-04-08T02:16:24;26.42;;;19.92;;
6757;SDS011;3416;53.074;8.822;2023-04-08T02:18:57;24.73;;;20.42;;
6757;SDS011;3416;53.074;8.822;2023-04-08T02:21:30;26.70;;;19.80;;
6757;SDS011;3416;53.074;8.822;2023-04-08T02:24:03;29.02;;;20.52;;
6757;SDS011;3416;53.074;8.822;2023-04-08T02:26:32;27.00;;;21.50;;
6757;SDS011;3416;53.074;8.822;2023-04-08T02:29:01;30.23;;;21.80;;
6757;SDS011;3416;53.074;8.822;2023-04-08T02:31:31;34.35;;;22.90;;
6757;SDS011;3416;53.074;8.822;2023-04-08T02:33:59;30.52;;;21.67;;
6757;SDS011;3416;53.074;8.822;2023-04-08T02:36:28;27.48;;;20.25;;
6757;SDS011;3416;53.074;8.822;2023-04-08T02:38:58;33.15;;;20.45;;
6757;SDS011;3416;53.074;8.822;2023-04-08T02:41:27;29.40;;;21.73;;
6757;SDS011;3416;53.074;8.822;2023-04-08T02:43:54;28.00;;;21.77;;
6757;SDS011;3416;53.074;8.822;2023-04-08T02:46:21;25.88;;;20.38;;
6757;SDS011;3416;53.074;8.822;2023-04-08T02:48:49;28.38;;;21.77;;
6757;SDS011;3416;53.074;8.822;2023-04-08T02:51:17;27.80;;;19.50;;
6757;SDS011;3416;53.074;8.822;2023-04-08T02:53:44;26.58;;;19.73;;
6757;SDS011;3416;53.074;8.822;2023-04-08T02:56:11;24.67;;;17.80;;
6757;SDS011;3416;53.074;8.822;2023-04-08T02:58:38;22.35;;;16.63;;
6757;SDS011;3416;53.074;8.822;2023-04-08T03:01:07;25.05;;;16.95;;
6757;SDS011;3416;53.074;8.822;2023-04-08T03:03:34;22.52;;;16.67;;
6757;SDS011;3416;53.074;8.822;2023-04-08T03:06:02;24.88;;;18.13;;
6757;SDS011;3416;53.074;8.822;2023-04-08T03:08:29;25.58;;;16.63;;
6757;SDS011;3416;53.074;8.822;2023-04-08T03:10:58;23.08;;;16.33;;
6757;SDS011;3416;53.074;8.822;2023-04-08T03:13:24;24.92;;;16.05;;
6757;SDS011;3416;53.074;8.822;2023-04-08T03:15:51;24.85;;;15.95;;
6757;SDS011;3416;53.074;8.822;2023-04-08T03:18:18;23.90;;;16.75;;
6757;SDS011;3416;53.074;8.822;2023-04-08T03:20:45;22.77;;;15.85;;
6757;SDS011;3416;53.074;8.822;2023-04-08T03:23:13;27.15;;;16.45;;
6757;SDS011;3416;53.074;8.822;2023-04-08T03:25:41;25.88;;;16.50;;
6757;SDS011;3416;53.074;8.822;2023-04-08T03:28:08;25.55;;;17.50;;
6757;SDS011;3416;53.074;8.822;2023-04-08T03:30:37;22.77;;;15.55;;
6757;SDS011;3416;53.074;8.822;2023-04-08T03:33:04;32.40;;;18.48;;
6757;SDS011;3416;53.074;8.822;2023-04-08T03:35:32;26.52;;;17.05;;
6757;SDS011;3416;53.074;8.822;2023-04-08T03:37:59;23.77;;;16.90;;
6757;SDS011;3416;53.074;8.822;2023-04-08T03:40:27;32.55;;;17.50;;
6757;SDS011;3416;53.074;8.822;2023-04-08T03:42:54;26.83;;;18.00;;
6757;SDS011;3416;53.074;8.822;2023-04-08T03:45:21;21.63;;;15.10;;
6757;SDS011;3416;53.074;8.822;2023-04-08T03:47:48;28.40;;;17.83;;
6757;SDS011;3416;53.074;8.822;2023-04-08T03:50:15;28.58;;;17.15;;
6757;SDS011;3416;53.074;8.822;2023-04-08T03:52:42;27.92;;;17.63;;
6757;SDS011;3416;53.074;8.822;2023-04-08T03:55:09;31.13;;;18.90;;
6757;SDS011;3416;53.074;8.822;2023-04-08T03:57:38;24.65;;;17.52;;
6757;SDS011;3416;53.074;8.822;2023-04-08T04:00:05;26.85;;;17.20;;
6757;SDS011;3416;53.074;8.822;2023-04-08T04:02:33;27.25;;;17.33;;
6757;SDS011;3416;53.074;8.822;2023-04-08T04:05:00;30.73;;;19.20;;
6757;SDS011;3416;53.074;8.822;2023-04-08T04:07:27;29.25;;;17.75;;
6757;SDS011;3416;53.074;8.822;2023-04-08T04:09:54;29.83;;;17.85;;
6757;SDS011;3416;53.074;8.822;2023-04-08T04:12:21;29.48;;;19.23;;
6757;SDS011;3416;53.074;8.822;2023-04-08T04:14:49;28.73;;;17.55;;
6757;SDS011;3416;53.074;8.822;2023-04-08T04:17:17;29.38;;;18.20;;
6757;SDS011;3416;53.074;8.822;2023-04-08T04:19:44;27.85;;;19.05;;
6757;SDS011;3416;53.074;8.822;2023-04-08T04:22:11;31.40;;;20.38;;
6757;SDS011;3416;53.074;8.822;2023-04-08T04:24:38;30.38;;;17.90;;
6757;SDS011;3416;53.074;8.822;2023-04-08T04:27:05;28.33;;;18.08;;
6757;SDS011;3416;53.074;8.822;2023-04-08T04:29:32;27.70;;;19.85;;
6757;SDS011;3416;53.074;8.822;2023-04-08T04:32:00;29.98;;;20.17;;
6757;SDS011;3416;53.074;8.822;2023-04-08T04:34:27;26.30;;;18.05;;
6757;SDS011;3416;53.074;8.822;2023-04-08T04:36:54;30.83;;;18.13;;
6757;SDS011;3416;53.074;8.822;2023-04-08T04:39:21;34.40;;;20.42;;
6757;SDS011;3416;53.074;8.822;2023-04-08T04:41:48;33.67;;;18.35;;
6757;SDS011;3416;53.074;8.822;2023-04-08T04:44:15;28.95;;;19.10;;
6757;SDS011;3416;53.074;8.822;2023-04-08T04:46:42;29.88;;;19.45;;
6757;SDS011;3416;53.074;8.822;2023-04-08T04:49:10;30.30;;;19.55;;
6757;SDS011;3416;53.074;8.822;2023-04-08T04:51:37;27.83;;;18.92;;
6757;SDS011;3416;53.074;8.822;2023-04-08T04:54:05;30.17;;;17.88;;
6757;SDS011;3416;53.074;8.822;2023-04-08T04:56:32;31.10;;;19.90;;
6757;SDS011;3416;53.074;8.822;2023-04-08T04:58:58;29.90;;;19.13;;
6757;SDS011;3416;53.074;8.822;2023-04-08T05:01:25;29.42;;;19.40;;
6757;SDS011;3416;53.074;8.822;2023-04-08T05:03:53;34.92;;;21.02;;
6757;SDS011;3416;53.074;8.822;2023-04-08T05:06:23;29.88;;;20.08;;
6757;SDS011;3416;53.074;8.822;2023-04-08T05:08:50;39.33;;;20.23;;
6757;SDS011;3416;53.074;8.822;2023-04-08T05:11:17;26.70;;;16.52;;
6757;SDS011;3416;53.074;8.822;2023-04-08T05:13:45;29.58;;;17.98;;
6757;SDS011;3416;53.074;8.822;2023-04-08T05:16:12;27.42;;;18.52;;
6757;SDS011;3416;53.074;8.822;2023-04-08T05:18:40;28.95;;;17.85;;
6757;SDS011;3416;53.074;8.822;2023-04-08T05:21:07;25.98;;;17.85;;
6757;SDS011;3416;53.074;8.822;2023-04-08T05:23:36;26.73;;;18.10;;
6757;SDS011;3416;53.074;8.822;2023-04-08T05:26:05;28.67;;;18.00;;
6757;SDS011;3416;53.074;8.822;2023-04-08T05:28:33;27.20;;;17.50;;
6757;SDS011;3416;53.074;8.822;2023-04-08T05:31:00;24.30;;;17.35;;
6757;SDS011;3416;53.074;8.822;2023-04-08T05:33:26;24.52;;;15.80;;
6757;SDS011;3416;53.074;8.822;2023-04-08T05:35:53;24.55;;;16.95;;
6757;SDS011;3416;53.074;8.822;2023-04-08T05:38:20;26.65;;;16.30;;
6757;SDS011;3416;53.074;8.822;2023-04-08T05:40:49;30.05;;;17.63;;
6757;SDS011;3416;53.074;8.822;2023-04-08T05:43:15;32.03;;;17.40;;
6757;SDS011;3416;53.074;8.822;2023-04-08T05:45:42;26.52;;;18.00;;
6757;SDS011;3416;53.074;8.822;2023-04-08T05:48:09;28.83;;;19.58;;
6757;SDS011;3416;53.074;8.822;2023-04-08T05:50:37;30.50;;;17.33;;
6757;SDS011;3416;53.074;8.822;2023-04-08T05:53:03;27.77;;;18.00;;
6757;SDS011;3416;53.074;8.822;2023-04-08T05:55:30;25.27;;;16.67;;
6757;SDS011;3416;53.074;8.822;2023-04-08T05:57:59;24.63;;;17.70;;
6757;SDS011;3416;53.074;8.822;2023-04-08T06:00:26;20.63;;;13.32;;
6757;SDS011;3416;53.074;8.822;2023-04-08T06:02:52;27.65;;;16.45;;
6757;SDS011;3416;53.074;8.822;2023-04-08T06:05:19;25.63;;;16.15;;
6757;SDS011;3416;53.074;8.822;2023-04-08T06:07:46;22.25;;;15.40;;
6757;SDS011;3416;53.074;8.822;2023-04-08T06:10:13;25.35;;;15.07;;
6757;SDS011;3416;53.074;8.822;2023-04-08T06:12:40;22.40;;;14.57;;
6757;SDS011;3416;53.074;8.822;2023-04-08T06:15:08;22.67;;;14.75;;
6757;SDS011;3416;53.074;8.822;2023-04-08T06:17:36;21.83;;;15.13;;
6757;SDS011;3416;53.074;8.822;2023-04-08T06:20:03;21.50;;;14.75;;
6757;SDS011;3416;53.074;8.822;2023-04-08T06:22:33;22.55;;;14.32;;
6757;SDS011;3416;53.074;8.822;2023-04-08T06:25:00;21.58;;;15.98;;
6757;SDS011;3416;53.074;8.822;2023-04-08T06:27:27;26.58;;;15.40;;
6757;SDS011;3416;53.074;8.822;2023-04-08T06:29:54;24.13;;;15.85;;
6757;SDS011;3416;53.074;8.822;2023-04-08T06:32:22;24.30;;;15.40;;
6757;SDS011;3416;53.074;8.822;2023-04-08T06:34:49;23.58;;;15.80;;
6757;SDS011;3416;53.074;8.822;2023-04-08T06:37:16;21.38;;;14.85;;
6757;SDS011;3416;53.074;8.822;2023-04-08T06:39:43;23.90;;;14.45;;
6757;SDS011;3416;53.074;8.822;2023-04-08T06:42:10;22.45;;;15.10;;
6757;SDS011;3416;53.074;8.822;2023-04-08T06:44:37;25.83;;;16.35;;
6757;SDS011;3416;53.074;8.822;2023-04-08T06:47:04;22.20;;;15.43;;
6757;SDS011;3416;53.074;8.822;2023-04-08T06:49:33;20.00;;;14.75;;
6757;SDS011;3416;53.074;8.822;2023-04-08T06:52:01;16.33;;;12.90;;
6757;SDS011;3416;53.074;8.822;2023-04-08T06:54:28;20.23;;;14.18;;
6757;SDS011;3416;53.074;8.822;2023-04-08T06:56:55;24.80;;;15.40;;
6757;SDS011;3416;53.074;8.822;2023-04-08T06:59:22;22.50;;;14.73;;
6757;SDS011;3416;53.074;8.822;2023-04-08T07:01:48;20.48;;;14.82;;
6757;SDS011;3416;53.074;8.822;2023-04-08T07:04:15;20.88;;;14.77;;
6757;SDS011;3416;53.074;8.822;2023-04-08T07:06:43;23.55;;;15.80;;
6757;SDS011;3416;53.074;8.822;2023-04-08T07:09:10;21.85;;;15.52;;
6757;SDS011;3416;53.074;8.822;2023-04-08T07:11:37;25.67;;;14.30;;
6757;SDS011;3416;53.074;8.822;2023-04-08T07:14:04;20.08;;;15.00;;
6757;SDS011;3416;53.074;8.822;2023-04-08T07:16:31;23.08;;;14.82;;
6757;SDS011;3416;53.074;8.822;2023-04-08T07:18:58;20.98;;;15.60;;
6757;SDS011;3416;53.074;8.822;2023-04-08T07:21:26;28.40;;;16.00;;
6757;SDS011;3416;53.074;8.822;2023-04-08T07:23:54;21.55;;;15.50;;
6757;SDS011;3416;53.074;8.822;2023-04-08T07:26:20;20.60;;;16.08;;
6757;SDS011;3416;53.074;8.822;2023-04-08T07:28:47;23.67;;;16.40;;
6757;SDS011;3416;53.074;8.822;2023-04-08T07:31:16;21.73;;;16.88;;
6757;SDS011;3416;53.074;8.822;2023-04-08T07:33:43;24.08;;;16.95;;
6757;SDS011;3416;53.074;8.822;2023-04-08T07:36:11;21.90;;;16.20;;
6757;SDS011;3416;53.074;8.822;2023-04-08T07:38:40;25.60;;;18.40;;
6757;SDS011;3416;53.074;8.822;2023-04-08T07:41:08;24.92;;;18.23;;
6757;SDS011;3416;53.074;8.822;2023-04-08T07:43:35;24.27;;;18.00;;
6757;SDS011;3416;53.074;8.822;2023-04-08T07:46:03;19.88;;;16.40;;
6757;SDS011;3416;53.074;8.822;2023-04-08T07:48:30;22.58;;;17.27;;
6757;SDS011;3416;53.074;8.822;2023-04-08T07:51:01;25.48;;;17.85;;
6757;SDS011;3416;53.074;8.822;2023-04-08T07:53:28;22.02;;;16.83;;
6757;SDS011;3416;53.074;8.822;2023-04-08T07:55:55;23.92;;;17.50;;
6757;SDS011;3416;53.074;8.822;2023-04-08T07:58:24;24.38;;;16.73;;
6757;SDS011;3416;53.074;8.822;2023-04-08T08:00:51;25.05;;;17.45;;
6757;SDS011;3416;53.074;8.822;2023-04-08T08:03:18;26.40;;;19.15;;
6757;SDS011;3416;53.074;8.822;2023-04-08T08:05:45;21.85;;;17.20;;
6757;SDS011;3416;53.074;8.822;2023-04-08T08:08:12;24.83;;;16.55;;
6757;SDS011;3416;53.074;8.822;2023-04-08T08:10:39;26.95;;;18.98;;
6757;SDS011;3416;53.074;8.822;2023-04-08T08:13:06;23.15;;;15.90;;
6757;SDS011;3416;53.074;8.822;2023-04-08T08:15:34;26.95;;;18.48;;
6757;SDS011;3416;53.074;8.822;2023-04-08T08:18:01;22.55;;;17.40;;
6757;SDS011;3416;53.074;8.822;2023-04-08T08:20:28;21.55;;;17.15;;
6757;SDS011;3416;53.074;8.822;2023-04-08T08:22:55;21.83;;;15.18;;
6757;SDS011;3416;53.074;8.822;2023-04-08T08:25:22;21.73;;;15.88;;
6757;SDS011;3416;53.074;8.822;2023-04-08T08:27:49;26.45;;;16.75;;
6757;SDS011;3416;53.074;8.822;2023-04-08T08:30:16;20.00;;;16.38;;
6757;SDS011;3416;53.074;8.822;2023-04-08T08:32:46;22.17;;;16.60;;
6757;SDS011;3416;53.074;8.822;2023-04-08T08:35:15;34.97;;;21.95;;
6757;SDS011;3416;53.074;8.822;2023-04-08T08:37:42;19.95;;;15.00;;
6757;SDS011;3416;53.074;8.822;2023-04-08T08:40:10;23.02;;;16.27;;
6757;SDS011;3416;53.074;8.822;2023-04-08T08:42:37;21.73;;;15.63;;
6757;SDS011;3416;53.074;8.822;2023-04-08T08:45:06;21.35;;;16.17;;
6757;SDS011;3416;53.074;8.822;2023-04-08T08:47:35;22.00;;;15.60;;
6757;SDS011;3416;53.074;8.822;2023-04-08T08:50:03;25.15;;;16.88;;
6757;SDS011;3416;53.074;8.822;2023-04-08T08:52:31;24.23;;;17.38;;
6757;SDS011;3416;53.074;8.822;2023-04-08T08:54:58;23.83;;;17.40;;
6757;SDS011;3416;53.074;8.822;2023-04-08T08:57:25;24.67;;;19.27;;
6757;SDS011;3416;53.074;8.822;2023-04-08T08:59:52;19.00;;;15.02;;
6757;SDS011;3416;53.074;8.822;2023-04-08T09:02:23;25.90;;;17.10;;
6757;SDS011;3416;53.074;8.822;2023-04-08T09:04:55;22.08;;;17.73;;
6757;SDS011;3416;53.074;8.822;2023-04-08T09:07:25;22.77;;;16.42;;
6757;SDS011;3416;53.074;8.822;2023-04-08T09:09:52;22.23;;;16.13;;
6757;SDS011;3416;53.074;8.822;2023-04-08T09:12:20;21.02;;;16.48;;
6757;SDS011;3416;53.074;8.822;2023-04-08T09:14:49;23.85;;;16.10;;
6757;SDS011;3416;53.074;8.822;2023-04-08T09:17:31;20.95;;;15.57;;
6757;SDS011;3416;53.074;8.822;2023-04-08T09:20:06;23.50;;;16.77;;
6757;SDS011;3416;53.074;8.822;2023-04-08T09:25:22;21.02;;;15.15;;
6757;SDS011;3416;53.074;8.822;2023-04-08T09:27:49;19.98;;;15.57;;
6757;SDS011;3416;53.074;8.822;2023-04-08T09:30:17;24.88;;;15.75;;
6757;SDS011;3416;53.074;8.822;2023-04-08T09:32:48;24.65;;;15.60;;
6757;SDS011;3416;53.074;8.822;2023-04-08T09:35:16;24.35;;;17.67;;
6757;SDS011;3416;53.074;8.822;2023-04-08T09:37:44;24.75;;;16.70;;
6757;SDS011;3416;53.074;8.822;2023-04-08T09:40:13;21.02;;;15.65;;
6757;SDS011;3416;53.074;8.822;2023-04-08T09:42:43;24.05;;;16.92;;
6757;SDS011;3416;53.074;8.822;2023-04-08T09:45:12;22.95;;;17.25;;
6757;SDS011;3416;53.074;8.822;2023-04-08T09:47:54;23.17;;;16.52;;
6757;SDS011;3416;53.074;8.822;2023-04-08T09:50:23;24.83;;;17.35;;
6757;SDS011;3416;53.074;8.822;2023-04-08T09:52:56;29.02;;;19.08;;
6757;SDS011;3416;53.074;8.822;2023-04-08T09:55:29;27.15;;;19.05;;
6757;SDS011;3416;53.074;8.822;2023-04-08T09:58:00;22.73;;;15.65;;
6757;SDS011;3416;53.074;8.822;2023-04-08T10:00:32;27.25;;;18.50;;
6757;SDS011;3416;53.074;8.822;2023-04-08T10:03:05;28.55;;;20.52;;
6757;SDS011;3416;53.074;8.822;2023-04-08T10:05:39;26.60;;;17.38;;
6757;SDS011;3416;53.074;8.822;2023-04-08T10:08:08;26.30;;;18.98;;
6757;SDS011;3416;53.074;8.822;2023-04-08T10:10:38;26.33;;;20.25;;
6757;SDS011;3416;53.074;8.822;2023-04-08T10:13:06;27.52;;;19.88;;
6757;SDS011;3416;53.074;8.822;2023-04-08T10:15:35;29.67;;;19.77;;
6757;SDS011;3416;53.074;8.822;2023-04-08T10:21:00;32.38;;;21.40;;
6757;SDS011;3416;53.074;8.822;2023-04-08T10:26:36;27.65;;;20.58;;
6757;SDS011;3416;53.074;8.822;2023-04-08T10:32:01;31.08;;;24.13;;
6757;SDS011;3416;53.074;8.822;2023-04-08T10:34:28;31.50;;;21.98;;
6757;SDS011;3416;53.074;8.822;2023-04-08T10:36:57;31.48;;;23.75;;
6757;SDS011;3416;53.074;8.822;2023-04-08T10:39:26;37.08;;;23.63;;
6757;SDS011;3416;53.074;8.822;2023-04-08T10:41:54;31.08;;;22.42;;
6757;SDS011;3416;53.074;8.822;2023-04-08T10:44:22;30.90;;;22.48;;
6757;SDS011;3416;53.074;8.822;2023-04-08T10:46:53;38.38;;;25.58;;
6757;SDS011;3416;53.074;8.822;2023-04-08T10:49:20;37.38;;;23.73;;
6757;SDS011;3416;53.074;8.822;2023-04-08T10:51:48;37.20;;;27.30;;
6757;SDS011;3416;53.074;8.822;2023-04-08T10:54:16;32.60;;;22.08;;
6757;SDS011;3416;53.074;8.822;2023-04-08T10:56:45;36.67;;;23.65;;
6757;SDS011;3416;53.074;8.822;2023-04-08T10:59:15;34.67;;;23.17;;
6757;SDS011;3416;53.074;8.822;2023-04-08T11:01:44;34.80;;;24.52;;
6757;SDS011;3416;53.074;8.822;2023-04-08T11:04:13;40.08;;;27.48;;
6757;SDS011;3416;53.074;8.822;2023-04-08T11:06:41;31.98;;;23.17;;
6757;SDS011;3416;53.074;8.822;2023-04-08T11:09:09;28.58;;;21.40;;
6757;SDS011;3416;53.074;8.822;2023-04-08T11:11:37;35.58;;;24.50;;
6757;SDS011;3416;53.074;8.822;2023-04-08T11:14:03;33.30;;;23.88;;
6757;SDS011;3416;53.074;8.822;2023-04-08T11:16:33;36.08;;;22.90;;
6757;SDS011;3416;53.074;8.822;2023-04-08T11:19:01;33.13;;;22.77;;
6757;SDS011;3416;53.074;8.822;2023-04-08T11:21:29;32.22;;;22.08;;
6757;SDS011;3416;53.074;8.822;2023-04-08T11:23:58;36.05;;;24.27;;
6757;SDS011;3416;53.074;8.822;2023-04-08T11:26:25;28.02;;;20.83;;
6757;SDS011;3416;53.074;8.822;2023-04-08T11:28:53;29.00;;;21.02;;
6757;SDS011;3416;53.074;8.822;2023-04-08T11:31:21;33.15;;;22.52;;
6757;SDS011;3416;53.074;8.822;2023-04-08T11:33:51;36.80;;;25.60;;
6757;SDS011;3416;53.074;8.822;2023-04-08T11:36:19;34.53;;;24.25;;
6757;SDS011;3416;53.074;8.822;2023-04-08T11:38:46;33.63;;;23.35;;
6757;SDS011;3416;53.074;8.822;2023-04-08T11:41:14;32.75;;;22.90;;
6757;SDS011;3416;53.074;8.822;2023-04-08T11:43:54;35.90;;;24.38;;
6757;SDS011;3416;53.074;8.822;2023-04-08T11:46:22;33.17;;;23.85;;
6757;SDS011;3416;53.074;8.822;2023-04-08T11:49:00;35.60;;;24.50;;
6757;SDS011;3416;53.074;8.822;2023-04-08T11:51:29;37.33;;;23.02;;
6757;SDS011;3416;53.074;8.822;2023-04-08T11:53:58;31.48;;;24.42;;
6757;SDS011;3416;53.074;8.822;2023-04-08T11:56:26;35.65;;;22.30;;
6757;SDS011;3416;53.074;8.822;2023-04-08T11:58:54;37.95;;;22.67;;
6757;SDS011;3416;53.074;8.822;2023-04-08T12:01:22;33.90;;;22.30;;
6757;SDS011;3416;53.074;8.822;2023-04-08T12:03:58;33.05;;;21.70;;
6757;SDS011;3416;53.074;8.822;2023-04-08T12:06:28;32.20;;;21.02;;
6757;SDS011;3416;53.074;8.822;2023-04-08T12:08:57;33.80;;;22.80;;
6757;SDS011;3416;53.074;8.822;2023-04-08T12:11:24;35.20;;;22.52;;
6757;SDS011;3416;53.074;8.822;2023-04-08T12:13:51;31.33;;;22.20;;
6757;SDS011;3416;53.074;8.822;2023-04-08T12:16:18;35.95;;;22.85;;
6757;SDS011;3416;53.074;8.822;2023-04-08T12:18:45;42.50;;;25.02;;
6757;SDS011;3416;53.074;8.822;2023-04-08T12:21:15;33.20;;;22.27;;
6757;SDS011;3416;53.074;8.822;2023-04-08T12:23:42;43.53;;;25.85;;
6757;SDS011;3416;53.074;8.822;2023-04-08T12:26:09;35.70;;;24.30;;
6757;SDS011;3416;53.074;8.822;2023-04-08T12:28:37;31.65;;;22.20;;
6757;SDS011;3416;53.074;8.822;2023-04-08T12:31:05;36.45;;;23.63;;
6757;SDS011;3416;53.074;8.822;2023-04-08T12:33:32;38.63;;;22.23;;
6757;SDS011;3416;53.074;8.822;2023-04-08T12:35:59;32.05;;;24.13;;
6757;SDS011;3416;53.074;8.822;2023-04-08T12:38:28;30.85;;;22.00;;
6757;SDS011;3416;53.074;8.822;2023-04-08T12:40:55;30.85;;;22.13;;
6757;SDS011;3416;53.074;8.822;2023-04-08T12:43:22;34.17;;;24.17;;
6757;SDS011;3416;53.074;8.822;2023-04-08T12:45:50;30.83;;;23.35;;
6757;SDS011;3416;53.074;8.822;2023-04-08T12:48:17;35.92;;;22.67;;
6757;SDS011;3416;53.074;8.822;2023-04-08T12:50:44;32.17;;;23.13;;
6757;SDS011;3416;53.074;8.822;2023-04-08T12:53:10;39.75;;;22.95;;
6757;SDS011;3416;53.074;8.822;2023-04-08T12:55:39;33.20;;;22.40;;
6757;SDS011;3416;53.074;8.822;2023-04-08T12:58:06;31.67;;;21.40;;
6757;SDS011;3416;53.074;8.822;2023-04-08T13:00:33;32.58;;;22.92;;
6757;SDS011;3416;53.074;8.822;2023-04-08T13:03:01;32.38;;;22.52;;
6757;SDS011;3416;53.074;8.822;2023-04-08T13:05:29;37.95;;;23.42;;
6757;SDS011;3416;53.074;8.822;2023-04-08T13:07:56;34.47;;;23.42;;
6757;SDS011;3416;53.074;8.822;2023-04-08T13:10:23;34.45;;;24.27;;
6757;SDS011;3416;53.074;8.822;2023-04-08T13:12:52;35.75;;;22.73;;
6757;SDS011;3416;53.074;8.822;2023-04-08T13:15:18;32.97;;;21.17;;
6757;SDS011;3416;53.074;8.822;2023-04-08T13:17:45;34.75;;;22.65;;
6757;SDS011;3416;53.074;8.822;2023-04-08T13:20:13;38.17;;;24.20;;
6757;SDS011;3416;53.074;8.822;2023-04-08T13:22:39;30.13;;;21.58;;
6757;SDS011;3416;53.074;8.822;2023-04-08T13:25:07;34.92;;;22.48;;
6757;SDS011;3416;53.074;8.822;2023-04-08T13:27:34;30.80;;;22.85;;
6757;SDS011;3416;53.074;8.822;2023-04-08T13:30:03;35.03;;;26.33;;
6757;SDS011;3416;53.074;8.822;2023-04-08T13:32:31;34.10;;;25.35;;
6757;SDS011;3416;53.074;8.822;2023-04-08T13:34:57;37.95;;;28.38;;
6757;SDS011;3416;53.074;8.822;2023-04-08T13:37:25;41.58;;;28.80;;
6757;SDS011;3416;53.074;8.822;2023-04-08T13:39:52;35.53;;;25.33;;
6757;SDS011;3416;53.074;8.822;2023-04-08T13:42:21;42.60;;;26.90;;
6757;SDS011;3416;53.074;8.822;2023-04-08T13:44:48;37.30;;;25.27;;
6757;SDS011;3416;53.074;8.822;2023-04-08T13:47:16;36.72;;;27.65;;
6757;SDS011;3416;53.074;8.822;2023-04-08T13:49:43;39.35;;;26.55;;
6757;SDS011;3416;53.074;8.822;2023-04-08T13:52:10;41.30;;;27.45;;
6757;SDS011;3416;53.074;8.822;2023-04-08T13:54:37;41.72;;;29.38;;
6757;SDS011;3416;53.074;8.822;2023-04-08T13:57:04;37.60;;;27.25;;
6757;SDS011;3416;53.074;8.822;2023-04-08T13:59:30;41.72;;;27.98;;
6757;SDS011;3416;53.074;8.822;2023-04-08T14:01:57;42.50;;;29.15;;
6757;SDS011;3416;53.074;8.822;2023-04-08T14:04:26;41.05;;;28.13;;
6757;SDS011;3416;53.074;8.822;2023-04-08T14:06:53;46.78;;;30.77;;
6757;SDS011;3416;53.074;8.822;2023-04-08T14:09:22;44.92;;;28.40;;
6757;SDS011;3416;53.074;8.822;2023-04-08T14:11:49;47.22;;;31.20;;
6757;SDS011;3416;53.074;8.822;2023-04-08T14:14:16;41.88;;;29.48;;
6757;SDS011;3416;53.074;8.822;2023-04-08T14:16:44;44.33;;;31.23;;
6757;SDS011;3416;53.074;8.822;2023-04-08T14:19:11;37.47;;;26.65;;
6757;SDS011;3416;53.074;8.822;2023-04-08T14:21:39;46.33;;;29.65;;
6757;SDS011;3416;53.074;8.822;2023-04-08T14:24:06;38.97;;;27.67;;
6757;SDS011;3416;53.074;8.822;2023-04-08T14:26:33;46.85;;;30.27;;
6757;SDS011;3416;53.074;8.822;2023-04-08T14:29:01;48.03;;;34.17;;
6757;SDS011;3416;53.074;8.822;2023-04-08T14:31:29;49.95;;;35.70;;
6757;SDS011;3416;53.074;8.822;2023-04-08T14:33:56;47.72;;;30.77;;
6757;SDS011;3416;53.074;8.822;2023-04-08T14:36:23;40.53;;;28.98;;
6757;SDS011;3416;53.074;8.822;2023-04-08T14:38:51;39.53;;;31.23;;
6757;SDS011;3416;53.074;8.822;2023-04-08T14:41:18;47.38;;;32.17;;
6757;SDS011;3416;53.074;8.822;2023-04-08T14:43:46;46.80;;;30.50;;
6757;SDS011;3416;53.074;8.822;2023-04-08T14:46:14;39.78;;;27.75;;
6757;SDS011;3416;53.074;8.822;2023-04-08T14:48:41;32.65;;;24.17;;
6757;SDS011;3416;53.074;8.822;2023-04-08T14:51:07;35.78;;;25.70;;
6757;SDS011;3416;53.074;8.822;2023-04-08T14:53:34;35.58;;;23.50;;
6757;SDS011;3416;53.074;8.822;2023-04-08T14:56:03;42.75;;;28.02;;
6757;SDS011;3416;53.074;8.822;2023-04-08T14:58:30;37.97;;;26.75;;
6757;SDS011;3416;53.074;8.822;2023-04-08T15:00:57;33.03;;;23.08;;
6757;SDS011;3416;53.074;8.822;2023-04-08T15:03:24;27.58;;;21.70;;
6757;SDS011;3416;53.074;8.822;2023-04-08T15:05:51;29.23;;;21.60;;